createdAt,value
2022-10-15T00:00:08.338Z,100426.22
2022-10-15T00:02:34.779Z,100405.63
2022-10-15T00:05:01.357Z,100413.31
2022-10-15T00:07:28.702Z,100423.34
2022-10-15T00:09:55.280Z,100413.97
2022-10-15T00:12:21.735Z,100417.78
2022-10-15T00:14:48.133Z,100415.63
2022-10-15T00:17:14.557Z,100402.53
2022-10-15T00:19:40.903Z,100415.53
2022-10-15T00:22:07.334Z,100412.19
2022-10-15T00:24:33.668Z,100403.47
2022-10-15T00:27:00.092Z,100416.94
2022-10-15T00:29:26.433Z,100416.16
2022-10-15T00:31:52.991Z,100422.78
2022-10-15T00:34:19.422Z,100408.84
2022-10-15T00:36:45.931Z,100419.69
2022-10-15T00:39:12.318Z,100410.78
2022-10-15T00:41:43.085Z,100417.22
2022-10-15T00:44:21.642Z,100414.75
2022-10-15T00:47:14.454Z,100411.41
2022-10-15T00:49:44.921Z,100416.63
2022-10-15T00:52:17.842Z,100422.19
2022-10-15T00:54:57.858Z,100424.69
2022-10-15T00:57:24.904Z,100415.97
2022-10-15T00:59:54.532Z,100408.66
2022-10-15T01:02:21.510Z,100414.69
2022-10-15T01:04:48.927Z,100413.47
2022-10-15T01:09:43.103Z,100401.84
2022-10-15T01:12:24.414Z,100403.34
2022-10-15T01:15:03.479Z,100407.06
2022-10-15T01:17:47.913Z,100403.34
2022-10-15T01:20:51.380Z,100406.13
2022-10-15T01:23:39.680Z,100413.38
2022-10-15T01:26:35.196Z,100413.75
2022-10-15T01:29:32.243Z,100420.16
2022-10-15T01:32:17.322Z,100404.50
2022-10-15T01:35:10.157Z,100420.34
2022-10-15T01:37:50.163Z,100409.50
2022-10-15T01:40:30.747Z,100410.16
2022-10-15T01:42:59.867Z,100407.00
2022-10-15T01:45:39.119Z,100413.22
2022-10-15T01:48:11.757Z,100406.53
2022-10-15T01:50:44.472Z,100405.06
2022-10-15T01:53:13.952Z,100402.13
2022-10-15T01:55:43.877Z,100420.19
2022-10-15T01:58:12.555Z,100408.69
2022-10-15T02:00:41.456Z,100416.19
2022-10-15T02:03:08.034Z,100408.88
2022-10-15T02:05:44.670Z,100417.59
2022-10-15T02:08:38.328Z,100417.44
2022-10-15T02:11:09.228Z,100417.78
2022-10-15T02:14:18.954Z,100406.19
2022-10-15T02:17:01.954Z,100415.09
2022-10-15T02:19:47.088Z,100406.75
2022-10-15T02:22:22.208Z,100402.50
2022-10-15T02:25:23.268Z,100406.28
2022-10-15T02:27:52.329Z,100403.25
2022-10-15T02:30:19.754Z,100386.25
2022-10-15T02:32:52.078Z,100402.22
2022-10-15T02:35:21.276Z,100394.25
2022-10-15T02:37:51.967Z,100399.66
2022-10-15T02:40:21.778Z,100384.22
2022-10-15T02:42:50.043Z,100394.81
2022-10-15T02:45:16.470Z,100387.09
2022-10-15T02:47:42.824Z,100384.53
2022-10-15T02:50:09.589Z,100393.88
2022-10-15T02:52:36.001Z,100388.25
2022-10-15T02:55:02.474Z,100396.66
2022-10-15T02:57:28.858Z,100381.19
2022-10-15T02:59:55.197Z,100380.50
2022-10-15T03:02:21.636Z,100383.72
2022-10-15T03:04:48.033Z,100389.47
2022-10-15T03:07:14.733Z,100381.03
2022-10-15T03:09:41.164Z,100390.09
2022-10-15T03:12:07.657Z,100385.84
2022-10-15T03:14:34.384Z,100391.56
2022-10-15T03:17:00.754Z,100395.81
2022-10-15T03:19:27.081Z,100390.88
2022-10-15T03:21:53.439Z,100400.63
2022-10-15T03:24:19.856Z,100402.81
2022-10-15T03:26:46.279Z,100400.69
2022-10-15T03:29:12.810Z,100390.53
2022-10-15T03:31:39.312Z,100394.25
2022-10-15T03:34:05.686Z,100402.03
2022-10-15T03:36:32.021Z,100391.03
2022-10-15T03:38:58.425Z,100398.09
2022-10-15T03:41:25.187Z,100392.94
2022-10-15T03:43:51.573Z,100393.59
2022-10-15T03:46:17.949Z,100400.63
2022-10-15T03:48:44.604Z,100397.13
2022-10-15T03:51:10.942Z,100398.44
2022-10-15T03:53:37.675Z,100400.94
2022-10-15T03:56:05.298Z,100400.78
2022-10-15T03:58:31.695Z,100404.09
2022-10-15T04:00:58.183Z,100392.06
2022-10-15T04:03:24.660Z,100396.03
2022-10-15T04:05:54.096Z,100403.38
2022-10-15T04:08:21.708Z,100399.69
2022-10-15T04:10:48.086Z,100401.19
2022-10-15T04:13:14.433Z,100392.66
2022-10-15T04:15:40.926Z,100401.19
2022-10-15T04:18:07.598Z,100402.69
2022-10-15T04:20:34.007Z,100403.31
2022-10-15T04:23:00.414Z,100401.00
2022-10-15T04:25:26.821Z,100404.97
2022-10-15T04:27:53.812Z,100403.63
2022-10-15T04:30:20.191Z,100408.34
2022-10-15T04:32:46.610Z,100397.59
2022-10-15T04:35:13.032Z,100402.59
2022-10-15T04:37:39.434Z,100397.22
2022-10-15T04:40:06.466Z,100403.44
2022-10-15T04:42:32.931Z,100410.31
2022-10-15T04:44:59.367Z,100420.22
2022-10-15T04:47:25.941Z,100424.56
2022-10-15T04:49:52.571Z,100422.41
2022-10-15T04:52:18.973Z,100422.91
2022-10-15T04:54:45.378Z,100427.91
2022-10-15T04:57:11.699Z,100418.53
2022-10-15T04:59:38.253Z,100411.69
2022-10-15T05:02:04.842Z,100426.78
2022-10-15T05:04:31.383Z,100428.44
2022-10-15T05:06:57.867Z,100430.66
2022-10-15T05:09:24.466Z,100435.84
2022-10-15T05:11:51.090Z,100431.66
2022-10-15T05:14:17.589Z,100435.19
2022-10-15T05:16:43.982Z,100437.59
2022-10-15T05:19:12.074Z,100431.91
2022-10-15T05:21:38.636Z,100443.59
2022-10-15T05:24:05.562Z,100446.09
2022-10-15T05:26:32.585Z,100441.13
2022-10-15T05:28:59.934Z,100444.44
2022-10-15T05:31:29.431Z,100443.16
2022-10-15T05:33:56.547Z,100446.28
2022-10-15T05:36:26.318Z,100447.69
2022-10-15T05:38:58.527Z,100446.66
2022-10-15T05:41:26.157Z,100445.00
2022-10-15T05:43:54.784Z,100451.66
2022-10-15T05:46:21.900Z,100458.91
2022-10-15T05:48:53.236Z,100459.09
2022-10-15T05:51:19.592Z,100454.06
2022-10-15T05:53:48.994Z,100462.59
2022-10-15T05:56:16.197Z,100461.28
2022-10-15T05:58:42.609Z,100466.31
2022-10-15T06:01:12.536Z,100471.84
2022-10-15T06:03:40.475Z,100472.69
2022-10-15T06:06:18.466Z,100475.19
2022-10-15T06:08:45.026Z,100462.81
2022-10-15T06:11:11.712Z,100461.63
2022-10-15T06:13:41.005Z,100469.50
2022-10-15T06:16:08.613Z,100470.19
2022-10-15T06:18:36.304Z,100471.69
2022-10-15T06:21:02.725Z,100466.66
2022-10-15T06:23:29.150Z,100455.41
2022-10-15T06:25:55.583Z,100475.03
2022-10-15T06:28:22.493Z,100480.19
2022-10-15T06:30:48.921Z,100475.38
2022-10-15T06:33:16.971Z,100476.56
2022-10-15T06:35:43.538Z,100484.56
2022-10-15T06:38:10.030Z,100486.56
2022-10-15T06:40:37.641Z,100491.94
2022-10-15T06:43:08.431Z,100485.09
2022-10-15T06:45:36.941Z,100475.06
2022-10-15T06:48:07.066Z,100482.59
2022-10-15T06:50:36.239Z,100485.78
2022-10-15T06:53:03.429Z,100495.84
2022-10-15T06:55:29.809Z,100475.72
2022-10-15T06:57:57.000Z,100481.59
2022-10-15T07:00:24.905Z,100491.13
2022-10-15T07:02:51.754Z,100489.47
2022-10-15T07:05:19.048Z,100493.63
2022-10-15T07:07:56.385Z,100495.28
2022-10-15T07:10:24.439Z,100484.28
2022-10-15T07:12:51.171Z,100498.66
2022-10-15T07:15:19.311Z,100481.09
2022-10-15T07:17:50.618Z,100498.97
2022-10-15T07:20:21.756Z,100490.25
2022-10-15T07:22:51.016Z,100493.75
2022-10-15T07:25:18.234Z,100503.25
2022-10-15T07:27:45.280Z,100492.84
2022-10-15T07:30:11.914Z,100505.72
2022-10-15T07:32:38.941Z,100500.09
2022-10-15T07:35:08.539Z,100457.47
2022-10-15T07:37:37.690Z,100478.78
2022-10-15T07:40:08.175Z,100510.38
2022-10-15T07:42:36.090Z,100470.78
2022-10-15T07:45:04.602Z,100519.38
2022-10-15T07:47:33.928Z,100518.34
2022-10-15T07:50:05.130Z,100454.41
2022-10-15T07:52:32.102Z,100471.00
2022-10-15T07:54:58.937Z,100508.56
2022-10-15T07:57:25.888Z,100492.09
2022-10-15T07:59:52.626Z,100502.63
2022-10-15T08:02:19.479Z,100430.31
2022-10-15T08:04:48.251Z,100451.63
2022-10-15T08:07:15.191Z,100503.19
2022-10-15T08:09:51.688Z,100508.97
2022-10-15T08:12:24.304Z,100510.81
2022-10-15T08:14:54.767Z,100486.91
2022-10-15T08:17:24.836Z,100448.84
2022-10-15T08:20:04.748Z,100446.00
2022-10-15T08:22:35.951Z,100495.00
2022-10-15T08:25:13.285Z,100537.00
2022-10-15T08:27:43.391Z,100464.31
2022-10-15T08:30:22.363Z,100523.16
2022-10-15T08:32:53.046Z,100437.41
2022-10-15T08:35:25.115Z,100535.06
2022-10-15T08:38:02.378Z,100532.03
2022-10-15T08:40:30.417Z,100517.88
2022-10-15T08:42:57.843Z,100469.41
2022-10-15T08:45:34.570Z,100441.22
2022-10-15T08:48:10.511Z,100495.91
2022-10-15T08:51:15.664Z,100496.31
2022-10-15T08:54:18.113Z,100468.94
2022-10-15T08:56:54.650Z,100455.00
2022-10-15T08:59:24.796Z,100526.63
2022-10-15T09:01:55.824Z,100524.25
2022-10-15T09:04:49.682Z,100477.31
2022-10-15T09:07:28.812Z,100518.94
2022-10-15T09:10:14.510Z,100472.72
2022-10-15T09:12:59.449Z,100540.31
2022-10-15T09:15:28.088Z,100469.06
2022-10-15T09:17:59.724Z,100530.63
2022-10-15T09:20:33.553Z,100493.13
2022-10-15T09:23:01.652Z,100478.09
2022-10-15T09:25:45.370Z,100528.75
2022-10-15T09:28:22.969Z,100522.56
2022-10-15T09:31:03.001Z,100440.31
2022-10-15T09:33:57.458Z,100461.25
2022-10-15T09:36:47.298Z,100503.56
2022-10-15T09:39:46.436Z,100528.22
2022-10-15T09:42:44.590Z,100528.97
2022-10-15T09:45:13.859Z,100474.66
2022-10-15T09:47:46.263Z,100476.00
2022-10-15T09:50:15.852Z,100445.28
2022-10-15T09:53:15.278Z,100509.13
2022-10-15T09:55:53.722Z,100493.50
2022-10-15T09:58:33.588Z,100522.25
2022-10-15T10:01:07.571Z,100483.72
2022-10-15T10:03:42.702Z,100439.59
2022-10-15T10:06:36.402Z,100433.31
2022-10-15T10:09:09.652Z,100458.44
2022-10-15T10:12:09.717Z,100507.63
2022-10-15T10:14:40.901Z,100515.97
2022-10-15T10:17:33.396Z,100474.66
2022-10-15T10:20:09.829Z,100515.56
2022-10-15T10:23:24.582Z,100436.13
2022-10-15T10:26:01.213Z,100473.53
2022-10-15T10:28:49.533Z,100491.34
2022-10-15T10:31:33.803Z,100522.28
2022-10-15T10:34:07.380Z,100454.41
2022-10-15T10:36:44.280Z,100494.59
2022-10-15T10:39:17.162Z,100500.41
2022-10-15T10:42:01.635Z,100506.28
2022-10-15T10:44:35.527Z,100494.66
2022-10-15T10:47:10.943Z,100504.88
2022-10-15T10:49:41.678Z,100453.00
2022-10-15T10:52:31.300Z,100456.56
2022-10-15T10:55:26.738Z,100499.47
2022-10-15T10:58:22.127Z,100482.41
2022-10-15T11:01:08.228Z,100480.50
2022-10-15T11:03:47.814Z,100472.88
2022-10-15T11:06:48.920Z,100439.53
2022-10-15T11:10:01.105Z,100484.19
2022-10-15T11:12:49.518Z,100443.16
2022-10-15T11:15:52.596Z,100445.03
2022-10-15T11:18:35.375Z,100496.00
2022-10-15T11:21:26.044Z,100497.84
2022-10-15T11:24:10.840Z,100490.41
2022-10-15T11:27:11.230Z,100486.28
2022-10-15T11:30:02.755Z,100493.66
2022-10-15T11:33:01.739Z,100480.72
2022-10-15T11:35:52.939Z,100481.03
2022-10-15T11:38:33.654Z,100414.88
2022-10-15T11:42:02.937Z,100485.94
2022-10-15T11:44:35.793Z,100485.38
2022-10-15T11:47:30.050Z,100481.53
2022-10-15T11:50:21.675Z,100469.03
2022-10-15T11:53:29.166Z,100410.25
2022-10-15T11:56:14.147Z,100483.31
2022-10-15T11:59:10.842Z,100479.69
2022-10-15T12:01:55.799Z,100448.41
2022-10-15T12:05:00.051Z,100470.03
2022-10-15T12:07:55.308Z,100488.53
2022-10-15T12:10:59.825Z,100470.00
2022-10-15T12:13:48.859Z,100436.47
2022-10-15T12:16:50.784Z,100449.47
2022-10-15T12:19:33.882Z,100397.66
2022-10-15T12:22:15.003Z,100357.28
2022-10-15T12:24:47.965Z,100445.25
2022-10-15T12:27:36.801Z,100437.41
2022-10-15T12:30:05.322Z,100429.00
2022-10-15T12:33:00.932Z,100378.16
2022-10-15T12:35:44.409Z,100432.56
2022-10-15T12:38:28.526Z,100407.25
2022-10-15T12:41:22.012Z,100310.41
2022-10-15T12:44:08.296Z,100330.69
2022-10-15T12:46:53.816Z,100332.22
2022-10-15T12:49:28.580Z,100408.47
2022-10-15T12:51:59.437Z,100382.75
2022-10-15T12:54:48.815Z,100400.16
2022-10-15T12:57:37.183Z,100427.69
2022-10-15T13:00:31.803Z,100391.53
2022-10-15T13:03:22.387Z,100393.53
2022-10-15T13:06:13.757Z,100390.97
2022-10-15T13:08:47.354Z,100398.63
2022-10-15T13:11:34.521Z,100429.97
2022-10-15T13:14:27.829Z,100410.09
2022-10-15T13:17:01.649Z,100423.28
2022-10-15T13:19:44.392Z,100406.56
2022-10-15T13:22:29.039Z,100350.03
2022-10-15T13:25:03.106Z,100382.47
2022-10-15T13:27:43.292Z,100348.44
2022-10-15T13:30:19.541Z,100331.88
2022-10-15T13:32:54.416Z,100425.06
2022-10-15T13:35:34.952Z,100411.81
2022-10-15T13:38:30.380Z,100336.75
2022-10-15T13:41:01.422Z,100340.00
2022-10-15T13:43:43.364Z,100319.25
2022-10-15T13:46:16.184Z,100360.47
2022-10-15T13:48:45.026Z,100333.66
2022-10-15T13:51:24.628Z,100291.25
2022-10-15T13:53:59.464Z,100318.22
2022-10-15T13:56:49.469Z,100334.06
2022-10-15T13:59:28.006Z,100287.56
2022-10-15T14:02:05.877Z,100305.81
2022-10-15T14:04:35.009Z,100389.88
2022-10-15T14:07:32.196Z,100379.97
2022-10-15T14:10:27.762Z,100319.56
2022-10-15T14:13:13.076Z,100302.00
2022-10-15T14:15:47.321Z,100350.72
2022-10-15T14:18:27.118Z,100297.03
2022-10-15T14:21:01.827Z,100341.09
2022-10-15T14:26:39.098Z,100329.63
2022-10-15T14:29:15.089Z,100316.25
2022-10-15T14:31:49.503Z,100274.16
2022-10-15T14:34:40.298Z,100345.78
2022-10-15T14:37:32.197Z,100345.50
2022-10-15T14:40:35.245Z,100301.28
2022-10-15T14:43:21.401Z,100344.03
2022-10-15T14:46:05.802Z,100329.03
2022-10-15T14:48:43.899Z,100338.44
2022-10-15T14:51:26.130Z,100274.75
2022-10-15T14:53:57.283Z,100360.25
2022-10-15T14:56:32.017Z,100277.31
2022-10-15T14:59:08.879Z,100253.50
2022-10-15T15:01:35.977Z,100304.41
2022-10-15T15:04:05.934Z,100266.47
2022-10-15T15:06:37.377Z,100371.88
2022-10-15T15:09:10.521Z,100307.63
2022-10-15T15:11:44.811Z,100358.53
2022-10-15T15:14:30.361Z,100376.88
2022-10-15T15:17:00.636Z,100345.69
2022-10-15T15:19:30.866Z,100280.72
2022-10-15T15:21:59.988Z,100311.88
2022-10-15T15:24:33.339Z,100293.84
2022-10-15T15:27:27.417Z,100318.34
2022-10-15T15:30:01.221Z,100359.94
2022-10-15T15:32:48.787Z,100268.50
2022-10-15T15:35:30.113Z,100363.72
2022-10-15T15:38:00.075Z,100346.66
2022-10-15T15:40:32.039Z,100348.97
2022-10-15T15:42:59.073Z,100321.00
2022-10-15T15:45:27.504Z,100344.69
2022-10-15T15:47:58.611Z,100339.44
2022-10-15T15:50:36.623Z,100294.81
2022-10-15T15:53:04.766Z,100271.50
2022-10-15T15:55:32.331Z,100290.84
2022-10-15T15:57:59.404Z,100308.94
2022-10-15T16:00:26.872Z,100340.94
2022-10-15T16:02:58.034Z,100290.22
2022-10-15T16:05:25.953Z,100256.16
2022-10-15T16:07:54.858Z,100321.66
2022-10-15T16:10:24.025Z,100265.75
2022-10-15T16:12:55.977Z,100294.84
2022-10-15T16:15:22.927Z,100342.88
2022-10-15T16:17:50.196Z,100309.97
2022-10-15T16:20:17.594Z,100329.72
2022-10-15T16:22:44.706Z,100348.81
2022-10-15T16:25:17.914Z,100294.31
2022-10-15T16:27:54.895Z,100279.94
2022-10-15T16:30:22.040Z,100314.81
2022-10-15T16:32:48.906Z,100283.81
2022-10-15T16:35:15.591Z,100351.00
2022-10-15T16:37:46.094Z,100365.09
2022-10-15T16:40:14.329Z,100301.03
2022-10-15T16:42:41.506Z,100283.25
2022-10-15T16:45:09.841Z,100347.16
2022-10-15T16:47:39.175Z,100319.09
2022-10-15T16:50:20.429Z,100299.28
2022-10-15T16:52:50.339Z,100350.69
2022-10-15T16:55:18.085Z,100312.97
2022-10-15T16:57:45.342Z,100335.28
2022-10-15T17:00:25.138Z,100335.19
2022-10-15T17:02:51.597Z,100323.13
2022-10-15T17:05:18.022Z,100336.22
2022-10-15T17:07:44.395Z,100338.28
2022-10-15T17:10:13.932Z,100343.03
2022-10-15T17:12:41.391Z,100343.03
2022-10-15T17:15:08.537Z,100331.34
2022-10-15T17:17:35.791Z,100351.94
2022-10-15T17:20:02.162Z,100349.44
2022-10-15T17:22:28.517Z,100355.44
2022-10-15T17:24:54.887Z,100360.63
2022-10-15T17:27:21.292Z,100353.13
2022-10-15T17:29:47.686Z,100351.66
2022-10-15T17:32:14.007Z,100351.66
2022-10-15T17:34:40.343Z,100369.53
2022-10-15T17:37:07.588Z,100369.28
2022-10-15T17:39:35.305Z,100358.28
2022-10-15T17:42:01.710Z,100348.47
2022-10-15T17:44:28.114Z,100372.16
2022-10-15T17:46:54.503Z,100362.78
2022-10-15T17:49:20.981Z,100366.97
2022-10-15T17:51:47.628Z,100375.25
2022-10-15T17:54:14.173Z,100366.31
2022-10-15T17:56:40.648Z,100365.50
2022-10-15T17:59:09.096Z,100366.09
2022-10-15T18:04:24.627Z,100373.34
2022-10-15T18:06:51.067Z,100362.31
2022-10-15T18:09:17.495Z,100383.09
2022-10-15T18:11:46.003Z,100371.03
2022-10-15T18:14:12.459Z,100378.31
2022-10-15T18:16:39.117Z,100372.53
2022-10-15T18:19:05.528Z,100377.31
2022-10-15T18:21:31.893Z,100377.06
2022-10-15T18:23:59.935Z,100389.72
2022-10-15T18:26:26.387Z,100397.47
2022-10-15T18:28:54.972Z,100394.97
2022-10-15T18:31:22.026Z,100406.00
2022-10-15T18:33:57.454Z,100408.31
2022-10-15T18:36:26.263Z,100401.00
2022-10-15T18:38:54.263Z,100388.72
2022-10-15T18:41:33.545Z,100404.16
2022-10-15T18:44:05.843Z,100407.94
2022-10-15T18:46:33.878Z,100407.56
2022-10-15T18:49:00.590Z,100410.72
2022-10-15T18:51:28.646Z,100415.88
2022-10-15T18:53:55.449Z,100420.66
2022-10-15T18:56:22.543Z,100424.63
2022-10-15T18:58:49.190Z,100431.13
2022-10-15T19:01:34.185Z,100429.91
2022-10-15T19:04:06.711Z,100426.75
2022-10-15T19:06:36.166Z,100434.47
2022-10-15T19:09:05.172Z,100432.78
2022-10-15T19:11:32.351Z,100431.88
2022-10-15T19:14:00.438Z,100437.91
2022-10-15T19:16:28.158Z,100426.00
2022-10-15T19:18:54.569Z,100433.69
2022-10-15T19:21:21.691Z,100444.88
2022-10-15T19:23:48.114Z,100445.91
2022-10-15T19:26:15.631Z,100452.53
2022-10-15T19:28:42.584Z,100453.31
2022-10-15T19:31:12.821Z,100468.25
2022-10-15T19:33:39.527Z,100468.97
2022-10-15T19:36:06.297Z,100449.09
2022-10-15T19:38:33.745Z,100465.78
2022-10-15T19:41:04.073Z,100464.94
2022-10-15T19:43:30.520Z,100471.56
2022-10-15T19:46:02.499Z,100472.59
2022-10-15T19:48:28.926Z,100445.06
2022-10-15T19:50:55.314Z,100468.78
2022-10-15T19:53:21.709Z,100472.31
2022-10-15T19:56:17.217Z,100486.53
2022-10-15T19:58:43.916Z,100469.38
2022-10-15T20:01:11.120Z,100491.47
2022-10-15T20:03:37.613Z,100496.47
2022-10-15T20:06:08.419Z,100496.72
2022-10-15T20:08:35.479Z,100492.34
2022-10-15T20:11:06.553Z,100490.66
2022-10-15T20:13:33.348Z,100496.50
2022-10-15T20:16:03.060Z,100503.19
2022-10-15T20:18:29.627Z,100499.41
2022-10-15T20:20:55.972Z,100501.53
2022-10-15T20:23:23.589Z,100507.56
2022-10-15T20:25:50.004Z,100505.06
2022-10-15T20:28:18.214Z,100499.41
2022-10-15T20:30:45.793Z,100516.41
2022-10-15T20:33:13.150Z,100541.81
2022-10-15T20:35:40.657Z,100538.25
2022-10-15T20:38:07.460Z,100549.88
2022-10-15T20:40:34.988Z,100542.56
2022-10-15T20:43:01.825Z,100544.31
2022-10-15T20:45:34.509Z,100556.56
2022-10-15T20:48:02.770Z,100561.50
2022-10-15T20:50:34.403Z,100574.22
2022-10-15T20:53:02.470Z,100588.53
2022-10-15T20:55:28.898Z,100568.97
2022-10-15T20:57:55.426Z,100576.03
2022-10-15T21:00:21.925Z,100576.72
2022-10-15T21:02:48.304Z,100582.13
2022-10-15T21:05:14.764Z,100579.41
2022-10-15T21:07:41.142Z,100595.41
2022-10-15T21:10:07.805Z,100593.56
2022-10-15T21:12:34.265Z,100601.59
2022-10-15T21:15:00.678Z,100599.66
2022-10-15T21:17:27.370Z,100626.91
2022-10-15T21:19:54.380Z,100622.44
2022-10-15T21:22:20.896Z,100611.81
2022-10-15T21:24:47.323Z,100621.94
2022-10-15T21:27:13.792Z,100633.47
2022-10-15T21:29:42.225Z,100625.50
2022-10-15T21:32:12.039Z,100631.09
2022-10-15T21:34:38.469Z,100629.78
2022-10-15T21:37:05.006Z,100636.22
2022-10-15T21:39:31.527Z,100630.66
2022-10-15T21:41:57.973Z,100635.41
2022-10-15T21:44:24.476Z,100647.13
2022-10-15T21:46:50.942Z,100657.91
2022-10-15T21:49:17.323Z,100661.34
2022-10-15T21:51:44.086Z,100660.31
2022-10-15T21:54:10.876Z,100679.84
2022-10-15T21:56:38.498Z,100677.69
2022-10-15T21:59:05.039Z,100676.19
2022-10-15T22:01:34.676Z,100682.66
2022-10-15T22:04:04.249Z,100667.03
2022-10-15T22:06:32.057Z,100648.16
2022-10-15T22:08:59.166Z,100656.25
2022-10-15T22:11:28.326Z,100668.13
2022-10-15T22:13:58.976Z,100667.69
2022-10-15T22:16:26.449Z,100666.56
2022-10-15T22:18:55.095Z,100669.44
2022-10-15T22:21:24.391Z,100684.09
2022-10-15T22:23:53.504Z,100665.88
2022-10-15T22:26:22.201Z,100677.28
2022-10-15T22:28:48.817Z,100664.56
2022-10-15T22:31:16.828Z,100669.09
2022-10-15T22:33:45.169Z,100681.19
2022-10-15T22:36:16.982Z,100683.03
2022-10-15T22:38:45.377Z,100660.56
2022-10-15T22:41:13.255Z,100676.06
2022-10-15T22:43:40.174Z,100687.22
2022-10-15T22:46:06.708Z,100687.41
2022-10-15T22:48:38.627Z,100665.47
2022-10-15T22:51:07.510Z,100673.72
2022-10-15T22:53:34.148Z,100690.06
2022-10-15T22:56:02.658Z,100678.44
2022-10-15T22:58:33.216Z,100688.19
2022-10-15T23:01:08.318Z,100692.75
2022-10-15T23:03:35.265Z,100667.00
2022-10-15T23:06:01.746Z,100672.19
2022-10-15T23:08:28.141Z,100679.25
2022-10-15T23:11:09.131Z,100672.44
2022-10-15T23:13:37.238Z,100684.91
2022-10-15T23:16:15.766Z,100685.34
2022-10-15T23:18:43.858Z,100700.03
2022-10-15T23:21:13.758Z,100689.31
2022-10-15T23:23:41.110Z,100696.00
2022-10-15T23:26:17.976Z,100691.34
2022-10-15T23:28:49.413Z,100700.44
2022-10-15T23:31:26.335Z,100703.97
2022-10-15T23:33:54.138Z,100712.69
2022-10-15T23:36:21.794Z,100690.84
2022-10-15T23:38:53.757Z,100696.53
2022-10-15T23:41:20.234Z,100689.50
2022-10-15T23:43:47.111Z,100698.56
2022-10-15T23:46:14.882Z,100697.56
2022-10-15T23:48:41.479Z,100685.69
2022-10-15T23:51:28.202Z,100702.22
2022-10-15T23:53:57.152Z,100690.31
2022-10-15T23:56:24.996Z,100710.84
2022-10-15T23:58:56.021Z,100707.78
